createdAt,value
2023-02-03T00:01:36.841Z,45.83
2023-02-03T00:04:03.263Z,43.13
2023-02-03T00:06:31.322Z,45.38
2023-02-03T00:08:59.344Z,40.58
2023-02-03T00:11:26.101Z,42.65
2023-02-03T00:13:52.489Z,40.00
2023-02-03T00:16:18.967Z,39.45
2023-02-03T00:18:45.416Z,39.55
2023-02-03T00:21:14.427Z,44.97
2023-02-03T00:23:41.574Z,38.13
2023-02-03T00:26:09.371Z,41.17
2023-02-03T00:28:35.847Z,42.17
2023-02-03T00:31:02.227Z,35.72
2023-02-03T00:33:28.743Z,38.17
2023-02-03T00:35:55.123Z,36.28
2023-02-03T00:38:21.532Z,35.75
2023-02-03T00:40:54.384Z,38.03
2023-02-03T00:43:21.319Z,39.17
2023-02-03T00:45:47.879Z,41.83
2023-02-03T00:48:14.393Z,34.17
2023-02-03T00:50:40.852Z,36.30
2023-02-03T00:53:07.459Z,36.08
2023-02-03T00:55:33.821Z,37.95
2023-02-03T00:58:00.200Z,39.55
2023-02-03T01:00:26.882Z,37.00
2023-02-03T01:02:53.411Z,36.33
2023-02-03T01:05:19.773Z,35.70
2023-02-03T01:07:46.155Z,33.75
2023-02-03T01:10:12.605Z,36.10
2023-02-03T01:12:38.988Z,34.63
2023-02-03T01:15:05.670Z,36.90
2023-02-03T01:17:32.064Z,32.58
2023-02-03T01:19:58.496Z,41.22
2023-02-03T01:22:24.934Z,38.47
2023-02-03T01:24:51.366Z,36.78
2023-02-03T01:27:17.762Z,40.30
2023-02-03T01:29:44.134Z,39.22
2023-02-03T01:32:10.554Z,41.72
2023-02-03T01:34:37.027Z,36.90
2023-02-03T01:37:03.415Z,38.08
2023-02-03T01:39:29.804Z,34.35
2023-02-03T01:41:56.628Z,40.42
2023-02-03T01:44:39.826Z,35.55
2023-02-03T01:47:26.411Z,39.63
2023-02-03T01:49:57.127Z,35.42
2023-02-03T01:52:23.860Z,35.42
2023-02-03T01:54:52.354Z,40.72
2023-02-03T01:57:25.861Z,36.97
2023-02-03T01:59:54.275Z,35.85
2023-02-03T02:02:21.071Z,40.03
2023-02-03T02:04:53.214Z,35.47
2023-02-03T02:09:46.297Z,37.97
2023-02-03T02:12:12.709Z,36.67
2023-02-03T02:14:39.873Z,35.63
2023-02-03T02:17:11.522Z,34.15
2023-02-03T02:20:02.077Z,35.30
2023-02-03T02:22:38.979Z,29.70
2023-02-03T02:25:14.804Z,36.60
2023-02-03T02:27:56.376Z,33.92
2023-02-03T02:30:29.071Z,31.08
2023-02-03T02:33:02.381Z,29.48
2023-02-03T02:35:55.721Z,36.92
2023-02-03T02:38:34.319Z,34.28
2023-02-03T02:41:20.658Z,31.17
2023-02-03T02:44:12.361Z,27.35
2023-02-03T02:46:43.438Z,35.00
2023-02-03T02:49:14.044Z,30.30
2023-02-03T02:51:41.297Z,29.92
2023-02-03T02:54:12.104Z,34.67
2023-02-03T02:56:39.491Z,28.85
2023-02-03T02:59:06.709Z,35.42
2023-02-03T03:01:33.626Z,33.03
2023-02-03T03:04:03.457Z,29.90
2023-02-03T03:06:33.836Z,27.15
2023-02-03T03:09:27.563Z,24.00
2023-02-03T03:11:58.295Z,28.77
2023-02-03T03:14:26.748Z,32.45
2023-02-03T03:17:06.225Z,29.67
2023-02-03T03:19:35.083Z,24.83
2023-02-03T03:22:04.306Z,28.88
2023-02-03T03:24:36.393Z,31.52
2023-02-03T03:27:07.234Z,28.92
2023-02-03T03:29:38.412Z,27.90
2023-02-03T03:32:04.961Z,29.58
2023-02-03T03:34:32.123Z,26.95
2023-02-03T03:37:19.737Z,32.05
2023-02-03T03:39:49.288Z,29.60
2023-02-03T03:42:36.443Z,29.70
2023-02-03T03:45:11.815Z,23.48
2023-02-03T03:48:10.027Z,22.88
2023-02-03T03:50:48.072Z,22.50
2023-02-03T03:53:15.513Z,25.17
2023-02-03T03:55:43.263Z,20.38
2023-02-03T03:58:13.305Z,18.92
2023-02-03T04:00:40.442Z,18.58
2023-02-03T04:03:18.885Z,20.98
2023-02-03T04:05:45.363Z,21.73
2023-02-03T04:08:11.819Z,17.73
2023-02-03T04:10:40.167Z,17.52
2023-02-03T04:13:07.921Z,21.15
2023-02-03T04:15:34.793Z,21.88
2023-02-03T04:18:01.653Z,22.75
2023-02-03T04:20:32.254Z,20.80
2023-02-03T04:22:58.743Z,17.38
2023-02-03T04:25:25.903Z,19.13
2023-02-03T04:27:52.322Z,13.85
2023-02-03T04:30:18.775Z,13.80
2023-02-03T04:32:46.221Z,16.77
2023-02-03T04:35:13.244Z,16.20
2023-02-03T04:37:40.032Z,14.05
2023-02-03T04:40:07.274Z,23.67
2023-02-03T04:42:33.678Z,18.55
2023-02-03T04:45:00.087Z,16.02
2023-02-03T04:47:26.452Z,14.25
2023-02-03T04:49:52.833Z,15.48
2023-02-03T04:52:19.216Z,15.45
2023-02-03T04:54:45.611Z,23.77
2023-02-03T04:57:12.146Z,15.65
2023-02-03T04:59:38.583Z,13.32
2023-02-03T05:02:05.145Z,16.77
2023-02-03T05:04:32.092Z,16.42
2023-02-03T05:06:58.488Z,14.60
2023-02-03T05:09:25.398Z,12.95
2023-02-03T05:11:52.101Z,13.23
2023-02-03T05:14:18.578Z,19.63
2023-02-03T05:16:46.401Z,17.70
2023-02-03T05:19:13.297Z,17.10
2023-02-03T05:21:39.660Z,19.20
2023-02-03T05:24:07.790Z,12.68
2023-02-03T05:26:35.200Z,10.88
2023-02-03T05:29:01.872Z,16.88
2023-02-03T05:31:28.282Z,20.83
2023-02-03T05:33:54.954Z,13.15
2023-02-03T05:36:21.366Z,7.45
2023-02-03T05:38:47.785Z,17.55
2023-02-03T05:41:32.414Z,11.23
2023-02-03T05:43:58.816Z,11.93
2023-02-03T05:46:25.294Z,11.43
2023-02-03T05:48:51.698Z,12.32
2023-02-03T05:51:18.127Z,12.25
2023-02-03T05:53:44.576Z,13.48
2023-02-03T05:56:10.986Z,15.13
2023-02-03T05:58:37.374Z,12.65
2023-02-03T06:01:03.870Z,13.52
2023-02-03T06:03:30.344Z,16.38
2023-02-03T06:05:56.808Z,7.95
2023-02-03T06:08:23.207Z,13.43
2023-02-03T06:10:49.608Z,15.55
2023-02-03T06:13:16.341Z,22.92
2023-02-03T06:15:43.670Z,8.88
2023-02-03T06:18:10.087Z,17.48
2023-02-03T06:20:36.481Z,16.63
2023-02-03T06:23:03.746Z,14.30
2023-02-03T06:25:32.537Z,17.17
2023-02-03T06:27:59.542Z,14.32
2023-02-03T06:30:26.171Z,15.27
2023-02-03T06:32:52.713Z,11.88
2023-02-03T06:35:19.123Z,14.38
2023-02-03T06:37:45.544Z,12.27
2023-02-03T06:40:12.585Z,13.13
2023-02-03T06:42:38.992Z,10.05
2023-02-03T06:45:05.932Z,12.13
2023-02-03T06:47:32.334Z,8.52
2023-02-03T06:49:58.903Z,11.30
2023-02-03T06:52:25.357Z,11.27
2023-02-03T06:54:51.736Z,10.57
2023-02-03T06:57:18.193Z,13.70
2023-02-03T06:59:44.566Z,14.95
2023-02-03T07:02:11.909Z,13.02
2023-02-03T07:04:39.014Z,12.80
2023-02-03T07:07:05.595Z,14.75
2023-02-03T07:09:32.112Z,13.68
2023-02-03T07:11:58.526Z,15.85
2023-02-03T07:14:24.924Z,16.27
2023-02-03T07:16:51.315Z,17.10
2023-02-03T07:19:17.708Z,15.15
2023-02-03T07:21:44.172Z,13.80
2023-02-03T07:24:10.553Z,19.20
2023-02-03T07:26:36.933Z,19.05
2023-02-03T07:29:03.951Z,15.25
2023-02-03T07:31:30.437Z,20.85
2023-02-03T07:33:57.198Z,21.40
2023-02-03T07:36:24.356Z,16.02
2023-02-03T07:38:50.805Z,18.58
2023-02-03T07:41:18.273Z,16.90
2023-02-03T07:43:44.761Z,17.20
2023-02-03T07:46:11.402Z,16.52
2023-02-03T07:48:37.877Z,18.13
2023-02-03T07:51:04.383Z,15.52
2023-02-03T07:53:31.892Z,13.52
2023-02-03T07:56:02.579Z,18.92
2023-02-03T07:58:29.783Z,14.60
2023-02-03T08:00:56.766Z,17.33
2023-02-03T08:03:23.294Z,14.40
2023-02-03T08:05:50.127Z,12.38
2023-02-03T08:08:16.800Z,12.02
2023-02-03T08:10:43.187Z,11.10
2023-02-03T08:13:09.593Z,11.35
2023-02-03T08:15:36.172Z,14.45
2023-02-03T08:18:02.575Z,9.80
2023-02-03T08:20:29.278Z,16.85
2023-02-03T08:22:55.822Z,12.05
2023-02-03T08:25:22.829Z,8.60
2023-02-03T08:27:49.341Z,10.88
2023-02-03T08:30:15.829Z,11.13
2023-02-03T08:32:42.246Z,8.90
2023-02-03T08:35:09.112Z,11.55
2023-02-03T08:37:35.818Z,12.32
2023-02-03T08:40:02.251Z,9.73
2023-02-03T08:42:28.707Z,9.65
2023-02-03T08:44:55.388Z,8.65
2023-02-03T08:47:21.966Z,11.77
2023-02-03T08:49:48.390Z,10.98
2023-02-03T08:52:16.816Z,12.75
2023-02-03T08:54:44.456Z,11.63
2023-02-03T08:57:10.910Z,13.68
2023-02-03T08:59:41.589Z,7.30
2023-02-03T09:02:11.211Z,13.50
2023-02-03T09:04:37.687Z,12.57
2023-02-03T09:07:04.352Z,10.00
2023-02-03T09:09:34.387Z,10.60
2023-02-03T09:12:02.232Z,11.38
2023-02-03T09:14:29.955Z,10.98
2023-02-03T09:16:56.514Z,11.30
2023-02-03T09:19:22.928Z,14.18
2023-02-03T09:21:49.387Z,10.43
2023-02-03T09:24:17.054Z,11.57
2023-02-03T09:26:44.033Z,13.38
2023-02-03T09:29:10.470Z,13.10
2023-02-03T09:31:36.956Z,9.02
2023-02-03T09:34:03.368Z,10.38
2023-02-03T09:36:29.816Z,9.93
2023-02-03T09:38:57.788Z,9.38
2023-02-03T09:41:36.380Z,13.57
2023-02-03T09:44:13.683Z,15.30
2023-02-03T09:46:43.325Z,14.80
2023-02-03T09:49:14.974Z,14.75
2023-02-03T09:51:49.270Z,11.30
2023-02-03T09:54:23.426Z,11.98
2023-02-03T09:56:52.356Z,15.43
2023-02-03T09:59:19.457Z,13.25
2023-02-03T10:01:56.986Z,12.52
2023-02-03T10:04:28.728Z,14.93
2023-02-03T10:07:15.805Z,14.77
2023-02-03T10:10:05.526Z,15.35
2023-02-03T10:12:41.002Z,16.02
2023-02-03T10:15:27.023Z,13.38
2023-02-03T10:17:57.422Z,12.88
2023-02-03T10:20:35.798Z,14.07
2023-02-03T10:23:07.236Z,14.32
2023-02-03T10:25:33.518Z,7.47
2023-02-03T10:28:01.798Z,15.23
2023-02-03T10:30:32.481Z,11.82
2023-02-03T10:33:08.649Z,14.02
2023-02-03T10:35:50.532Z,26.85
2023-02-03T10:38:24.912Z,13.90
2023-02-03T10:40:51.375Z,14.20
2023-02-03T10:43:36.385Z,11.98
2023-02-03T10:46:02.836Z,20.13
2023-02-03T10:48:29.883Z,10.77
2023-02-03T10:50:57.548Z,13.35
2023-02-03T10:53:33.726Z,12.20
2023-02-03T10:56:07.704Z,13.63
2023-02-03T10:58:34.500Z,23.27
2023-02-03T11:01:12.588Z,7.28
2023-02-03T11:03:43.322Z,16.70
2023-02-03T11:06:13.730Z,20.23
2023-02-03T11:08:43.163Z,10.82
2023-02-03T11:11:14.388Z,14.85
2023-02-03T11:13:41.169Z,9.00
2023-02-03T11:16:16.242Z,16.10
2023-02-03T11:19:04.865Z,11.95
2023-02-03T11:21:38.192Z,14.88
2023-02-03T11:24:22.704Z,14.60
2023-02-03T11:27:03.012Z,12.30
2023-02-03T11:29:31.428Z,14.23
2023-02-03T11:32:00.637Z,12.10
2023-02-03T11:34:34.347Z,12.00
2023-02-03T11:37:34.828Z,8.52
2023-02-03T11:40:07.199Z,13.93
2023-02-03T11:42:36.013Z,15.25
2023-02-03T11:45:17.654Z,15.30
2023-02-03T11:47:49.395Z,11.88
2023-02-03T11:50:25.698Z,12.98
2023-02-03T11:53:13.898Z,19.52
2023-02-03T11:56:12.566Z,14.02
2023-02-03T11:58:57.721Z,11.27
2023-02-03T12:01:51.421Z,10.00
2023-02-03T12:04:43.158Z,7.80
2023-02-03T12:07:15.700Z,14.07
2023-02-03T12:09:43.312Z,13.18
2023-02-03T12:12:22.331Z,15.05
2023-02-03T12:14:56.209Z,14.73
2023-02-03T12:17:35.717Z,12.88
2023-02-03T12:20:29.747Z,17.88
2023-02-03T12:22:58.986Z,15.90
2023-02-03T12:25:44.675Z,13.88
2023-02-03T12:28:32.588Z,12.65
2023-02-03T12:31:10.964Z,10.77
2023-02-03T12:33:54.362Z,21.90
2023-02-03T12:36:30.637Z,10.85
2023-02-03T12:39:12.460Z,18.48
2023-02-03T12:41:44.121Z,13.57
2023-02-03T12:44:23.649Z,11.60
2023-02-03T12:47:13.153Z,14.82
2023-02-03T12:49:47.434Z,15.25
2023-02-03T12:52:35.067Z,18.65
2023-02-03T12:55:34.871Z,14.65
2023-02-03T12:58:11.631Z,20.92
2023-02-03T13:00:47.633Z,19.65
2023-02-03T13:03:20.669Z,11.10
2023-02-03T13:05:52.524Z,13.32
2023-02-03T13:08:25.471Z,14.20
2023-02-03T13:11:07.049Z,14.88
2023-02-03T13:13:37.611Z,18.15
2023-02-03T13:16:08.000Z,12.25
2023-02-03T13:18:37.482Z,11.38
2023-02-03T13:21:04.208Z,13.75
2023-02-03T13:23:30.687Z,15.30
2023-02-03T13:26:28.429Z,17.52
2023-02-03T13:29:23.794Z,15.07
2023-02-03T13:32:07.135Z,13.68
2023-02-03T13:34:55.519Z,10.45
2023-02-03T13:37:31.823Z,13.18
2023-02-03T13:40:16.016Z,13.50
2023-02-03T13:42:47.341Z,23.15
2023-02-03T13:45:22.586Z,21.43
2023-02-03T13:47:51.441Z,24.38
2023-02-03T13:50:28.887Z,22.58
2023-02-03T13:53:37.690Z,14.25
2023-02-03T13:56:06.813Z,21.20
2023-02-03T13:58:35.052Z,19.25
2023-02-03T14:01:21.677Z,20.73
2023-02-03T14:03:48.463Z,14.95
2023-02-03T14:06:39.664Z,19.05
2023-02-03T14:09:24.962Z,22.92
2023-02-03T14:11:52.593Z,24.52
2023-02-03T14:14:20.702Z,25.60
2023-02-03T14:16:54.721Z,27.13
2023-02-03T14:19:21.269Z,21.35
2023-02-03T14:22:08.224Z,21.15
2023-02-03T14:24:37.454Z,20.50
2023-02-03T14:27:06.673Z,18.02
2023-02-03T14:29:35.543Z,26.20
2023-02-03T14:32:04.183Z,19.42
2023-02-03T14:34:34.656Z,19.92
2023-02-03T14:37:30.864Z,23.00
2023-02-03T14:40:26.027Z,18.85
2023-02-03T14:43:09.482Z,17.60
2023-02-03T14:45:36.728Z,20.90
2023-02-03T14:48:52.103Z,23.92
2023-02-03T14:51:27.548Z,20.83
2023-02-03T14:54:31.473Z,23.85
2023-02-03T14:57:16.628Z,22.83
2023-02-03T14:59:44.894Z,22.63
2023-02-03T15:02:14.954Z,23.27
2023-02-03T15:04:42.308Z,27.85
2023-02-03T15:07:09.024Z,22.27
2023-02-03T15:09:48.523Z,23.70
2023-02-03T15:12:19.991Z,17.42
2023-02-03T15:14:46.418Z,22.60
2023-02-03T15:17:22.285Z,22.05
2023-02-03T15:19:48.839Z,26.85
2023-02-03T15:22:21.024Z,23.15
2023-02-03T15:27:25.235Z,37.45
2023-02-03T15:29:52.113Z,30.45
2023-02-03T15:32:27.915Z,18.23
2023-02-03T15:34:55.380Z,25.50
2023-02-03T15:37:37.474Z,20.98
2023-02-03T15:40:09.962Z,16.60
2023-02-03T15:42:54.490Z,22.75
2023-02-03T15:45:29.497Z,19.52
2023-02-03T15:48:00.033Z,21.05
2023-02-03T15:50:32.706Z,22.25
2023-02-03T15:53:05.220Z,25.08
2023-02-03T15:55:40.400Z,25.23
2023-02-03T15:58:06.986Z,23.92
2023-02-03T16:00:40.371Z,25.38
2023-02-03T16:03:16.125Z,20.08
2023-02-03T16:05:44.690Z,27.00
2023-02-03T16:08:35.170Z,23.52
2023-02-03T16:11:01.824Z,20.27
2023-02-03T16:13:29.799Z,20.30
2023-02-03T16:16:21.449Z,24.00
2023-02-03T16:18:56.096Z,23.37
2023-02-03T16:21:28.674Z,20.13
2023-02-03T16:23:55.077Z,22.20
2023-02-03T16:26:24.803Z,20.45
2023-02-03T16:29:22.111Z,22.85
2023-02-03T16:32:08.101Z,22.20
2023-02-03T16:34:53.125Z,26.55
2023-02-03T16:37:45.748Z,22.50
2023-02-03T16:40:32.451Z,28.15
2023-02-03T16:43:17.520Z,18.65
2023-02-03T16:46:02.433Z,18.98
2023-02-03T16:48:47.519Z,24.85
2023-02-03T16:51:18.485Z,22.40
2023-02-03T16:53:47.963Z,20.25
2023-02-03T16:56:14.800Z,22.40
2023-02-03T16:58:41.176Z,27.05
2023-02-03T17:01:09.473Z,28.83
2023-02-03T17:03:36.672Z,18.48
2023-02-03T17:06:05.751Z,23.83
2023-02-03T17:08:32.823Z,31.38
2023-02-03T17:11:07.586Z,18.02
2023-02-03T17:13:34.176Z,23.08
2023-02-03T17:16:00.792Z,22.08
2023-02-03T17:18:27.403Z,27.45
2023-02-03T17:20:53.968Z,22.70
2023-02-03T17:23:20.449Z,26.42
2023-02-03T17:25:49.248Z,22.50
2023-02-03T17:28:15.891Z,24.10
2023-02-03T17:30:42.472Z,20.27
2023-02-03T17:33:12.105Z,17.38
2023-02-03T17:35:43.394Z,22.55
2023-02-03T17:38:11.053Z,22.65
2023-02-03T17:54:24.178Z,23.85
2023-02-03T17:56:50.612Z,25.73
2023-02-03T17:59:17.018Z,24.17
2023-02-03T18:01:43.455Z,21.02
2023-02-03T18:04:10.010Z,28.02
2023-02-03T18:06:36.426Z,21.17
2023-02-03T18:09:05.368Z,20.48
2023-02-03T18:11:33.065Z,23.58
2023-02-03T18:13:59.974Z,23.10
2023-02-03T18:16:29.274Z,19.38
2023-02-03T18:18:56.242Z,21.35
2023-02-03T18:21:25.887Z,33.33
2023-02-03T18:23:54.020Z,23.05
2023-02-03T18:26:20.877Z,23.73
2023-02-03T18:28:50.917Z,32.88
2023-02-03T18:31:17.661Z,24.92
2023-02-03T18:33:46.058Z,30.13
2023-02-03T18:36:12.802Z,22.27
2023-02-03T18:38:40.768Z,20.60
2023-02-03T18:41:08.460Z,26.15
2023-02-03T18:43:35.434Z,28.45
2023-02-03T18:46:09.688Z,24.55
2023-02-03T18:48:36.432Z,23.98
2023-02-03T18:51:03.158Z,30.20
2023-02-03T18:53:31.110Z,22.58
2023-02-03T18:55:57.523Z,24.40
2023-02-03T18:58:23.904Z,23.52
2023-02-03T19:00:50.549Z,22.38
2023-02-03T19:03:16.936Z,25.00
2023-02-03T19:05:43.360Z,20.98
2023-02-03T19:08:09.762Z,26.08
2023-02-03T19:10:36.894Z,21.00
2023-02-03T19:13:03.314Z,17.77
2023-02-03T19:15:29.742Z,26.98
2023-02-03T19:17:56.125Z,28.85
2023-02-03T19:20:22.546Z,24.80
2023-02-03T19:22:50.153Z,22.20
2023-02-03T19:25:16.603Z,18.45
2023-02-03T19:27:43.069Z,26.58
2023-02-03T19:30:10.403Z,26.38
2023-02-03T19:32:36.799Z,22.00
2023-02-03T19:35:03.209Z,26.38
2023-02-03T19:37:29.657Z,35.80
2023-02-03T19:39:56.020Z,27.38
2023-02-03T19:42:22.436Z,25.52
2023-02-03T19:44:50.890Z,16.98
2023-02-03T19:47:17.431Z,24.50
2023-02-03T19:49:43.807Z,22.27
2023-02-03T19:52:10.261Z,33.75
2023-02-03T19:54:36.629Z,31.67
2023-02-03T19:57:03.096Z,31.80
2023-02-03T19:59:29.546Z,35.05
2023-02-03T20:01:58.093Z,32.03
2023-02-03T20:04:27.531Z,26.55
2023-02-03T20:06:53.947Z,28.80
2023-02-03T20:09:20.363Z,30.75
2023-02-03T20:11:46.992Z,31.40
2023-02-03T20:14:15.109Z,31.45
2023-02-03T20:16:42.699Z,25.63
2023-02-03T20:19:09.066Z,29.42
2023-02-03T20:21:35.644Z,34.72
2023-02-03T20:24:02.111Z,31.08
2023-02-03T20:26:28.570Z,31.35
2023-02-03T20:28:54.925Z,18.25
2023-02-03T20:31:22.135Z,35.05
2023-02-03T20:33:48.761Z,30.98
2023-02-03T20:36:15.198Z,38.20
2023-02-03T20:38:41.640Z,25.67
2023-02-03T20:41:11.818Z,29.85
2023-02-03T20:43:38.634Z,27.40
2023-02-03T20:46:12.735Z,34.63
2023-02-03T20:48:39.446Z,27.15
2023-02-03T20:51:11.233Z,29.65
2023-02-03T20:53:37.658Z,29.15
2023-02-03T20:56:07.773Z,32.17
2023-02-03T20:58:35.009Z,26.30
2023-02-03T21:01:03.612Z,25.85
2023-02-03T21:03:48.559Z,30.98
2023-02-03T21:06:17.313Z,30.40
2023-02-03T21:08:44.758Z,30.90
2023-02-03T21:11:16.872Z,27.45
2023-02-03T21:13:45.287Z,24.10
2023-02-03T21:16:19.793Z,27.25
2023-02-03T21:18:52.569Z,36.63
2023-02-03T21:21:33.915Z,28.70
2023-02-03T21:24:00.843Z,35.30
2023-02-03T21:26:28.898Z,23.90
2023-02-03T21:28:59.764Z,34.78
2023-02-03T21:31:28.431Z,27.75
2023-02-03T21:33:56.570Z,31.42
2023-02-03T21:36:25.138Z,31.20
2023-02-03T21:38:55.775Z,26.85
2023-02-03T21:41:24.358Z,24.83
2023-02-03T21:43:56.880Z,29.15
2023-02-03T21:46:26.752Z,25.98
2023-02-03T21:48:57.991Z,42.05
2023-02-03T21:51:26.828Z,31.70
2023-02-03T21:54:04.071Z,32.40
2023-02-03T21:56:41.450Z,34.83
2023-02-03T21:59:22.279Z,32.75
2023-02-03T22:01:49.253Z,28.98
2023-02-03T22:04:15.996Z,32.70
2023-02-03T22:06:44.574Z,25.52
2023-02-03T22:09:13.211Z,34.40
2023-02-03T22:11:39.601Z,28.33
2023-02-03T22:14:06.032Z,28.08
2023-02-03T22:16:32.657Z,36.00
2023-02-03T22:18:59.105Z,27.55
2023-02-03T22:21:25.551Z,23.52
2023-02-03T22:23:52.131Z,42.47
2023-02-03T22:26:19.189Z,37.05
2023-02-03T22:28:45.816Z,29.85
2023-02-03T22:31:13.120Z,38.50
2023-02-03T22:33:40.698Z,22.73
2023-02-03T22:36:07.890Z,37.42
2023-02-03T22:38:35.142Z,35.60
2023-02-03T22:41:01.755Z,31.05
2023-02-03T22:43:30.597Z,35.33
2023-02-03T22:45:57.453Z,29.13
2023-02-03T22:48:23.894Z,28.52
2023-02-03T22:50:50.307Z,34.50
2023-02-03T22:53:16.708Z,26.77
2023-02-03T22:55:43.186Z,33.50
2023-02-03T22:58:09.647Z,23.67
2023-02-03T23:00:36.207Z,30.58
2023-02-03T23:03:03.944Z,31.63
2023-02-03T23:05:31.342Z,37.08
2023-02-03T23:07:57.692Z,25.10
2023-02-03T23:10:25.819Z,28.05
2023-02-03T23:12:52.392Z,23.67
2023-02-03T23:15:19.033Z,25.42
2023-02-03T23:17:45.658Z,46.17
2023-02-03T23:20:13.697Z,27.55
2023-02-03T23:22:40.059Z,32.65
2023-02-03T23:25:06.839Z,22.08
2023-02-03T23:27:33.211Z,30.30
2023-02-03T23:29:59.733Z,35.95
2023-02-03T23:32:26.093Z,32.53
2023-02-03T23:35:21.454Z,26.38
2023-02-03T23:37:48.061Z,25.25
2023-02-03T23:40:14.626Z,36.47
2023-02-03T23:42:41.025Z,30.02
2023-02-03T23:45:11.515Z,32.25
2023-02-03T23:47:42.474Z,42.03
2023-02-03T23:50:10.845Z,27.08
2023-02-03T23:52:37.244Z,32.80
2023-02-03T23:55:05.670Z,37.45
2023-02-03T23:57:32.495Z,24.60
2023-02-03T23:59:58.956Z,34.55
